createdAt,value
2017-09-24T00:00:11.183Z,92.20
2017-09-24T00:02:38.783Z,92.20
2017-09-24T00:05:06.270Z,92.30
2017-09-24T00:07:34.143Z,92.30
2017-09-24T00:10:01.622Z,92.30
2017-09-24T00:12:29.862Z,92.30
2017-09-24T00:14:57.351Z,92.30
2017-09-24T00:17:25.741Z,92.20
2017-09-24T00:19:53.990Z,92.20
2017-09-24T00:22:23.167Z,92.20
2017-09-24T00:24:50.731Z,92.20
2017-09-24T00:27:18.238Z,92.30
2017-09-24T00:29:45.729Z,92.40
2017-09-24T00:32:13.255Z,92.20
2017-09-24T00:34:41.034Z,92.10
2017-09-24T00:37:08.685Z,92.00
2017-09-24T00:39:36.218Z,92.10
2017-09-24T00:42:04.547Z,92.20
2017-09-24T00:44:32.030Z,92.20
2017-09-24T00:46:59.614Z,92.20
2017-09-24T00:49:27.896Z,92.30
2017-09-24T00:51:56.394Z,92.20
2017-09-24T00:54:23.880Z,92.20
2017-09-24T00:56:51.390Z,92.20
2017-09-24T00:59:19.653Z,92.10
2017-09-24T01:01:47.930Z,92.10
2017-09-24T01:04:16.302Z,92.10
2017-09-24T01:06:44.537Z,91.90
2017-09-24T01:09:12.231Z,91.90
2017-09-24T01:11:39.822Z,91.80
2017-09-24T01:14:08.058Z,91.90
2017-09-24T01:16:35.738Z,91.90
2017-09-24T01:19:04.010Z,91.90
2017-09-24T01:21:32.316Z,92.30
2017-09-24T01:24:00.540Z,91.90
2017-09-24T01:26:28.234Z,91.90
2017-09-24T01:28:56.502Z,91.90
2017-09-24T01:31:24.000Z,91.80
2017-09-24T01:33:51.475Z,92.10
2017-09-24T01:36:18.949Z,91.90
2017-09-24T01:38:46.438Z,91.80
2017-09-24T01:41:14.648Z,91.70
2017-09-24T01:43:42.178Z,91.60
2017-09-24T01:46:10.415Z,91.90
2017-09-24T01:48:38.060Z,91.90
2017-09-24T01:51:05.544Z,91.90
2017-09-24T01:53:33.020Z,91.80
2017-09-24T01:56:01.283Z,91.80
2017-09-24T01:58:29.590Z,91.70
2017-09-24T02:00:57.861Z,91.70
2017-09-24T02:03:26.201Z,91.70
2017-09-24T02:05:53.685Z,91.70
2017-09-24T02:08:21.318Z,91.90
2017-09-24T02:10:48.813Z,91.70
2017-09-24T02:13:17.057Z,91.80
2017-09-24T02:15:44.589Z,91.70
2017-09-24T02:18:12.446Z,91.70
2017-09-24T02:20:39.922Z,91.80
2017-09-24T02:23:07.408Z,91.80
2017-09-24T02:25:34.961Z,91.80
2017-09-24T02:28:02.427Z,91.80
2017-09-24T02:30:30.306Z,91.90
2017-09-24T02:32:58.556Z,91.90
2017-09-24T02:35:26.081Z,91.80
2017-09-24T02:37:53.596Z,92.00
2017-09-24T02:40:21.856Z,92.30
2017-09-24T02:42:49.397Z,92.30
2017-09-24T02:45:16.882Z,92.70
2017-09-24T02:47:45.175Z,92.20
2017-09-24T02:50:13.414Z,92.30
2017-09-24T02:52:40.910Z,92.20
2017-09-24T02:55:09.133Z,92.30
2017-09-24T02:57:36.640Z,92.30
2017-09-24T03:00:04.914Z,92.50
2017-09-24T03:02:33.674Z,92.60
2017-09-24T03:05:01.240Z,92.60
2017-09-24T03:07:28.729Z,92.80
2017-09-24T03:09:56.973Z,92.90
2017-09-24T03:12:24.463Z,92.90
2017-09-24T03:14:52.700Z,93.10
2017-09-24T03:17:20.587Z,93.20
2017-09-24T03:19:48.810Z,93.00
2017-09-24T03:22:16.307Z,93.00
2017-09-24T03:24:43.793Z,93.20
2017-09-24T03:27:12.016Z,92.90
2017-09-24T03:29:39.596Z,92.90
2017-09-24T03:32:07.100Z,93.10
2017-09-24T03:34:34.577Z,93.10
2017-09-24T03:37:02.077Z,93.10
2017-09-24T03:39:30.453Z,92.90
2017-09-24T03:41:58.724Z,93.20
2017-09-24T03:44:26.202Z,93.10
2017-09-24T03:46:54.449Z,93.40
2017-09-24T03:49:21.964Z,93.40
2017-09-24T03:51:49.493Z,93.50
2017-09-24T03:54:17.752Z,93.40
2017-09-24T03:56:45.336Z,93.40
2017-09-24T03:59:12.822Z,93.20
2017-09-24T04:01:40.332Z,93.10
2017-09-24T04:04:07.801Z,93.00
2017-09-24T04:06:36.036Z,92.90
2017-09-24T04:09:03.582Z,92.90
2017-09-24T04:11:31.050Z,92.90
2017-09-24T04:13:58.743Z,92.90
2017-09-24T04:16:26.210Z,92.80
2017-09-24T04:18:54.450Z,92.50
2017-09-24T04:21:21.948Z,92.50
2017-09-24T04:23:49.427Z,92.50
2017-09-24T04:26:16.919Z,92.80
2017-09-24T04:28:45.051Z,92.70
2017-09-24T04:31:12.660Z,92.50
2017-09-24T04:33:40.106Z,92.60
2017-09-24T04:36:07.598Z,92.40
2017-09-24T04:38:35.093Z,92.30
2017-09-24T04:41:02.551Z,92.60
2017-09-24T04:43:30.066Z,92.30
2017-09-24T04:45:57.629Z,92.30
2017-09-24T04:48:25.434Z,92.30
2017-09-24T04:50:52.941Z,92.20
2017-09-24T04:53:20.398Z,92.20
2017-09-24T04:55:48.665Z,92.30
2017-09-24T04:58:16.158Z,92.30
2017-09-24T05:00:44.517Z,92.30
2017-09-24T05:03:11.992Z,92.30
2017-09-24T05:05:40.278Z,92.70
2017-09-24T05:08:07.762Z,92.70
2017-09-24T05:10:35.266Z,92.70
2017-09-24T05:13:03.563Z,92.90
2017-09-24T05:15:31.804Z,93.00
2017-09-24T05:17:59.303Z,93.00
2017-09-24T05:20:26.790Z,93.00
2017-09-24T05:22:54.806Z,93.00
2017-09-24T05:25:22.279Z,93.00
2017-09-24T05:27:49.905Z,93.10
2017-09-24T05:30:17.386Z,93.30
2017-09-24T05:32:45.906Z,93.60
2017-09-24T05:35:13.386Z,93.60
2017-09-24T05:37:40.894Z,94.40
2017-09-24T05:40:09.155Z,95.80
2017-09-24T05:42:36.652Z,95.70
2017-09-24T05:45:04.140Z,95.90
2017-09-24T05:47:31.642Z,95.90
2017-09-24T05:49:59.882Z,95.70
2017-09-24T05:52:27.453Z,95.70
2017-09-24T05:54:54.935Z,95.60
2017-09-24T05:57:22.732Z,95.60
2017-09-24T05:59:50.251Z,95.80
2017-09-24T06:02:18.484Z,95.90
2017-09-24T06:04:46.121Z,95.90
2017-09-24T06:07:13.588Z,95.70
2017-09-24T06:09:41.079Z,95.40
2017-09-24T06:12:08.566Z,95.20
2017-09-24T06:14:36.986Z,95.00
2017-09-24T06:17:04.465Z,95.00
2017-09-24T06:19:31.958Z,94.90
2017-09-24T06:22:00.196Z,94.70
2017-09-24T06:24:28.458Z,94.70
2017-09-24T06:26:55.949Z,94.60
2017-09-24T06:29:23.846Z,94.90
2017-09-24T06:31:51.618Z,95.00
2017-09-24T06:34:19.108Z,94.90
2017-09-24T06:36:46.718Z,95.00
2017-09-24T06:39:15.066Z,95.00
2017-09-24T06:41:42.549Z,94.90
2017-09-24T06:44:11.304Z,94.90
2017-09-24T06:46:38.775Z,94.90
2017-09-24T06:49:06.273Z,95.20
2017-09-24T06:51:33.783Z,95.50
2017-09-24T06:54:01.328Z,95.80
2017-09-24T06:56:28.827Z,95.90
2017-09-24T06:58:57.072Z,96.80
2017-09-24T07:01:24.565Z,96.60
2017-09-24T07:03:52.804Z,97.20
2017-09-24T07:06:20.306Z,97.20
2017-09-24T07:08:47.839Z,97.10
2017-09-24T07:11:16.369Z,97.00
2017-09-24T07:13:43.852Z,97.00
2017-09-24T07:16:11.350Z,97.10
2017-09-24T07:18:39.577Z,97.30
2017-09-24T07:21:07.968Z,97.70
2017-09-24T07:23:35.472Z,97.70
2017-09-24T07:26:02.968Z,97.50
2017-09-24T07:28:30.467Z,97.50
2017-09-24T07:30:58.735Z,96.80
2017-09-24T07:33:26.390Z,96.80
2017-09-24T07:35:53.908Z,96.70
2017-09-24T07:38:21.374Z,96.90
2017-09-24T07:40:48.926Z,97.00
2017-09-24T07:43:16.827Z,96.90
2017-09-24T07:45:44.319Z,97.00
2017-09-24T07:48:12.575Z,96.20
2017-09-24T07:50:40.110Z,96.20
2017-09-24T07:53:07.603Z,95.90
2017-09-24T07:55:35.900Z,95.40
2017-09-24T07:58:04.191Z,95.80
2017-09-24T08:00:31.667Z,95.80
2017-09-24T08:02:59.154Z,96.00
2017-09-24T08:05:27.397Z,95.80
2017-09-24T08:07:54.946Z,95.70
2017-09-24T08:10:23.195Z,95.60
2017-09-24T08:12:50.695Z,95.70
2017-09-24T08:15:18.184Z,95.60
2017-09-24T08:17:46.446Z,95.70
2017-09-24T08:20:13.977Z,95.70
2017-09-24T08:22:41.478Z,95.50
2017-09-24T08:25:08.970Z,95.10
2017-09-24T08:27:36.470Z,95.00
2017-09-24T08:30:04.044Z,94.80
2017-09-24T08:32:31.537Z,95.10
2017-09-24T08:35:00.000Z,94.90
2017-09-24T08:37:28.275Z,94.60
2017-09-24T08:39:56.522Z,94.70
2017-09-24T08:42:24.038Z,94.60
2017-09-24T08:44:51.513Z,94.70
2017-09-24T08:47:18.999Z,95.10
2017-09-24T08:49:46.536Z,95.20
2017-09-24T08:52:14.424Z,95.20
2017-09-24T08:54:41.942Z,95.50
2017-09-24T08:57:09.451Z,95.50
2017-09-24T08:59:36.926Z,95.70
2017-09-24T09:02:05.185Z,95.60
2017-09-24T09:04:32.662Z,95.60
2017-09-24T09:07:00.895Z,95.30
2017-09-24T09:09:28.423Z,95.20
2017-09-24T09:11:55.990Z,95.30
2017-09-24T09:14:24.316Z,95.20
2017-09-24T09:16:51.791Z,95.20
2017-09-24T09:19:19.304Z,95.10
2017-09-24T09:21:47.765Z,94.90
2017-09-24T09:24:15.266Z,94.60
2017-09-24T09:26:42.752Z,94.10
2017-09-24T09:29:10.381Z,93.90
2017-09-24T09:31:37.858Z,94.10
2017-09-24T09:34:18.141Z,93.50
2017-09-24T09:36:45.618Z,93.40
2017-09-24T09:39:13.161Z,93.20
2017-09-24T09:41:40.639Z,93.20
2017-09-24T09:44:20.022Z,92.90
2017-09-24T09:47:00.277Z,92.50
2017-09-24T09:49:28.051Z,92.50
2017-09-24T09:51:56.302Z,93.10
2017-09-24T09:54:27.949Z,92.50
2017-09-24T09:56:58.595Z,92.50
2017-09-24T09:59:31.169Z,92.30
2017-09-24T10:01:59.598Z,91.20
2017-09-24T10:04:27.082Z,91.10
2017-09-24T10:07:06.568Z,91.60
2017-09-24T10:09:46.621Z,90.80
2017-09-24T10:12:15.068Z,91.10
2017-09-24T10:14:42.610Z,91.10
2017-09-24T10:17:10.098Z,90.90
2017-09-24T10:19:38.368Z,90.20
2017-09-24T10:22:06.281Z,90.20
2017-09-24T10:24:33.812Z,89.80
2017-09-24T10:27:02.120Z,89.30
2017-09-24T10:29:29.603Z,89.30
2017-09-24T10:32:03.954Z,89.00
2017-09-24T10:34:31.433Z,89.50
2017-09-24T10:36:59.695Z,89.40
2017-09-24T10:39:27.961Z,89.30
2017-09-24T10:41:55.749Z,89.10
2017-09-24T10:44:23.994Z,87.70
2017-09-24T10:46:51.487Z,87.50
2017-09-24T10:49:19.003Z,86.80
2017-09-24T10:51:46.513Z,87.20
2017-09-24T10:54:13.987Z,86.60
2017-09-24T10:56:41.636Z,86.90
2017-09-24T10:59:09.129Z,87.40
2017-09-24T11:01:36.720Z,86.90
2017-09-24T11:04:04.958Z,87.20
2017-09-24T11:06:32.471Z,87.10
2017-09-24T11:09:00.594Z,86.30
2017-09-24T11:11:28.074Z,86.30
2017-09-24T11:13:56.370Z,85.60
2017-09-24T11:16:24.050Z,85.60
2017-09-24T11:18:51.579Z,85.50
2017-09-24T11:21:19.902Z,84.60
2017-09-24T11:23:47.416Z,84.50
2017-09-24T11:26:15.735Z,83.10
2017-09-24T11:28:43.239Z,82.90
2017-09-24T11:31:11.863Z,83.70
2017-09-24T11:33:39.476Z,83.60
2017-09-24T11:36:06.957Z,83.70
2017-09-24T11:38:35.239Z,82.80
2017-09-24T11:41:03.539Z,82.40
2017-09-24T11:43:31.067Z,82.40
2017-09-24T11:45:58.588Z,82.90
2017-09-24T11:48:26.359Z,81.90
2017-09-24T11:50:53.887Z,81.50
2017-09-24T11:53:21.372Z,81.00
2017-09-24T11:55:49.121Z,81.00
2017-09-24T11:58:16.585Z,79.80
2017-09-24T12:00:44.080Z,79.50
2017-09-24T12:03:12.356Z,78.90
2017-09-24T12:05:41.541Z,77.30
2017-09-24T12:08:09.054Z,77.30
2017-09-24T12:10:36.548Z,75.50
2017-09-24T12:13:04.080Z,76.50
2017-09-24T12:15:31.576Z,75.40
2017-09-24T12:17:59.079Z,76.80
2017-09-24T12:20:26.579Z,77.20
2017-09-24T12:22:54.093Z,76.80
2017-09-24T12:25:21.808Z,74.50
2017-09-24T12:27:50.008Z,76.70
2017-09-24T12:30:18.290Z,76.70
2017-09-24T12:32:46.697Z,77.90
2017-09-24T12:35:14.866Z,77.80
2017-09-24T12:37:42.341Z,78.10
2017-09-24T12:40:09.989Z,77.70
2017-09-24T12:42:37.597Z,75.40
2017-09-24T12:45:05.071Z,74.70
2017-09-24T12:47:33.679Z,73.20
2017-09-24T12:50:01.187Z,73.20
2017-09-24T12:52:28.741Z,73.90
2017-09-24T12:54:56.306Z,73.60
2017-09-24T12:57:23.789Z,72.50
2017-09-24T12:59:52.079Z,72.30
2017-09-24T13:02:19.597Z,72.30
2017-09-24T13:04:47.219Z,73.10
2017-09-24T13:07:14.800Z,73.10
2017-09-24T13:09:42.308Z,73.40
2017-09-24T13:12:10.576Z,71.90
2017-09-24T13:14:39.703Z,70.70
2017-09-24T13:17:07.213Z,70.50
2017-09-24T13:19:34.682Z,71.30
2017-09-24T13:22:02.980Z,67.30
2017-09-24T13:24:30.488Z,67.40
2017-09-24T13:26:57.985Z,68.00
2017-09-24T13:29:25.520Z,68.30
2017-09-24T13:31:53.006Z,67.00
2017-09-24T13:34:20.532Z,64.90
2017-09-24T13:36:48.008Z,63.20
2017-09-24T13:39:16.301Z,64.80
2017-09-24T13:41:43.813Z,64.80
2017-09-24T13:44:11.601Z,64.70
2017-09-24T13:46:39.922Z,66.60
2017-09-24T13:49:07.389Z,66.60
2017-09-24T13:51:34.893Z,66.00
2017-09-24T13:54:02.396Z,65.50
2017-09-24T13:56:29.918Z,64.30
2017-09-24T13:58:58.235Z,63.80
2017-09-24T14:01:25.722Z,63.80
2017-09-24T14:03:53.280Z,64.40
2017-09-24T14:06:20.771Z,65.20
2017-09-24T14:08:49.055Z,64.80
2017-09-24T14:11:17.336Z,65.10
2017-09-24T14:13:44.846Z,65.10
2017-09-24T14:16:12.381Z,64.40
2017-09-24T14:18:39.852Z,65.30
2017-09-24T14:21:07.560Z,65.80
2017-09-24T14:23:35.898Z,64.80
2017-09-24T14:26:03.495Z,64.60
2017-09-24T14:28:31.802Z,64.10
2017-09-24T14:30:59.329Z,64.10
2017-09-24T14:33:27.601Z,63.60
2017-09-24T14:35:55.903Z,62.50
2017-09-24T14:38:23.637Z,62.50
2017-09-24T14:40:51.926Z,64.30
2017-09-24T14:43:20.180Z,62.20
2017-09-24T14:45:47.755Z,62.20
2017-09-24T14:48:16.025Z,62.80
2017-09-24T14:50:44.554Z,63.20
2017-09-24T14:53:12.030Z,63.20
2017-09-24T14:55:39.519Z,63.70
2017-09-24T14:58:07.849Z,62.60
2017-09-24T15:00:35.341Z,62.40
2017-09-24T15:03:02.851Z,62.10
2017-09-24T15:05:30.670Z,61.30
2017-09-24T15:07:58.511Z,62.00
2017-09-24T15:10:26.793Z,61.00
2017-09-24T15:12:54.301Z,61.00
2017-09-24T15:15:21.795Z,62.10
2017-09-24T15:17:49.279Z,61.10
2017-09-24T15:20:16.823Z,61.40
2017-09-24T15:22:44.325Z,60.50
2017-09-24T15:25:11.839Z,62.10
2017-09-24T15:27:39.327Z,62.80
2017-09-24T15:30:07.574Z,64.60
2017-09-24T15:32:35.119Z,64.50
2017-09-24T15:35:03.209Z,64.10
2017-09-24T15:37:32.240Z,64.10
2017-09-24T15:39:59.746Z,64.50
2017-09-24T15:42:27.896Z,65.60
2017-09-24T15:44:55.373Z,66.40
2017-09-24T15:47:22.857Z,64.50
2017-09-24T15:49:50.322Z,64.40
2017-09-24T15:52:17.864Z,66.10
2017-09-24T15:54:45.336Z,65.60
2017-09-24T15:57:12.998Z,66.30
2017-09-24T15:59:40.497Z,67.20
2017-09-24T16:02:07.999Z,68.20
2017-09-24T16:04:35.551Z,68.90
2017-09-24T16:07:03.083Z,69.60
2017-09-24T16:09:30.601Z,69.90
2017-09-24T16:12:00.001Z,70.50
2017-09-24T16:14:27.771Z,70.00
2017-09-24T16:16:55.337Z,70.50
2017-09-24T16:19:23.604Z,71.40
2017-09-24T16:21:52.808Z,71.40
2017-09-24T16:24:21.079Z,71.60
2017-09-24T16:26:49.515Z,71.80
2017-09-24T16:29:17.065Z,71.80
2017-09-24T16:31:44.805Z,72.20
2017-09-24T16:34:12.297Z,72.10
2017-09-24T16:36:39.760Z,72.70
2017-09-24T16:39:07.249Z,73.20
2017-09-24T16:41:35.522Z,73.70
2017-09-24T16:44:03.028Z,73.70
2017-09-24T16:46:30.530Z,74.20
2017-09-24T16:48:58.045Z,74.80
2017-09-24T16:51:25.577Z,76.00
2017-09-24T16:53:53.124Z,75.70
2017-09-24T16:56:21.387Z,76.00
2017-09-24T16:58:50.314Z,76.60
2017-09-24T17:01:17.866Z,76.50
2017-09-24T17:03:45.351Z,77.20
2017-09-24T17:06:13.170Z,78.00
2017-09-24T17:08:40.671Z,78.70
2017-09-24T17:11:08.145Z,79.80
2017-09-24T17:13:35.642Z,80.20
2017-09-24T17:16:03.946Z,81.40
2017-09-24T17:18:31.485Z,81.30
2017-09-24T17:20:59.732Z,82.00
2017-09-24T17:23:27.400Z,82.00
2017-09-24T17:25:54.906Z,82.80
2017-09-24T17:28:22.415Z,83.60
2017-09-24T17:30:49.903Z,84.10
2017-09-24T17:33:18.180Z,84.90
2017-09-24T17:35:45.734Z,84.90
2017-09-24T17:38:14.015Z,85.80
2017-09-24T17:40:41.550Z,85.70
2017-09-24T17:43:10.712Z,87.50
2017-09-24T17:45:38.189Z,87.40
2017-09-24T17:48:05.836Z,87.80
2017-09-24T17:50:33.672Z,88.20
2017-09-24T17:53:01.438Z,88.10
2017-09-24T17:55:28.944Z,88.40
2017-09-24T17:57:56.702Z,88.70
2017-09-24T18:00:24.202Z,89.00
2017-09-24T18:02:51.709Z,89.50
2017-09-24T18:05:19.240Z,89.90
2017-09-24T18:07:47.628Z,90.00
2017-09-24T18:10:15.230Z,90.20
2017-09-24T18:12:43.836Z,90.20
2017-09-24T18:15:11.573Z,90.30
2017-09-24T18:17:39.055Z,90.30
2017-09-24T18:20:07.350Z,90.60
2017-09-24T18:22:34.841Z,90.60
2017-09-24T18:25:02.328Z,90.70
2017-09-24T18:27:29.809Z,90.70
2017-09-24T18:29:57.342Z,90.80
2017-09-24T18:32:24.832Z,90.80
2017-09-24T18:34:52.322Z,90.90
2017-09-24T18:37:19.805Z,91.00
2017-09-24T18:39:47.395Z,91.00
2017-09-24T18:42:15.681Z,91.30
2017-09-24T18:44:43.536Z,91.60
2017-09-24T18:47:11.781Z,91.40
2017-09-24T18:49:39.264Z,91.40
2017-09-24T18:52:07.545Z,91.50
2017-09-24T18:54:35.784Z,91.70
2017-09-24T18:57:03.306Z,91.60
2017-09-24T18:59:30.809Z,91.70
2017-09-24T19:01:58.829Z,91.60
2017-09-24T19:04:26.659Z,91.70
2017-09-24T19:06:54.973Z,91.70
2017-09-24T19:09:22.486Z,91.60
2017-09-24T19:11:50.199Z,91.70
2017-09-24T19:14:17.727Z,91.70
2017-09-24T19:16:45.949Z,91.80
2017-09-24T19:19:13.750Z,91.80
2017-09-24T19:21:42.007Z,91.60
2017-09-24T19:24:09.503Z,91.60
2017-09-24T19:26:37.901Z,91.70
2017-09-24T19:29:05.419Z,91.70
2017-09-24T19:31:32.948Z,91.70
2017-09-24T19:34:00.726Z,91.80
2017-09-24T19:36:28.368Z,91.70
2017-09-24T19:38:55.835Z,91.70
2017-09-24T19:41:23.327Z,91.60
2017-09-24T19:43:51.602Z,91.70
2017-09-24T19:46:19.877Z,91.70
2017-09-24T19:48:48.352Z,91.60
2017-09-24T19:51:16.585Z,91.70
2017-09-24T19:53:44.765Z,91.50
2017-09-24T19:56:12.469Z,91.50
2017-09-24T19:58:40.726Z,91.60
2017-09-24T20:01:08.242Z,91.60
2017-09-24T20:03:35.970Z,91.70
2017-09-24T20:06:03.491Z,91.70
2017-09-24T20:08:31.783Z,91.90
2017-09-24T20:10:59.327Z,91.90
2017-09-24T20:13:26.814Z,91.80
2017-09-24T20:15:54.342Z,91.80
2017-09-24T20:18:21.852Z,91.90
2017-09-24T20:20:50.125Z,91.80
2017-09-24T20:23:18.380Z,92.00
2017-09-24T20:25:46.670Z,91.80
2017-09-24T20:28:14.928Z,91.90
2017-09-24T20:30:43.188Z,91.60
2017-09-24T20:33:10.717Z,91.80
2017-09-24T20:35:38.182Z,91.90
2017-09-24T20:38:05.751Z,92.00
2017-09-24T20:40:33.220Z,91.90
2017-09-24T20:43:00.708Z,91.90
2017-09-24T20:45:28.997Z,92.00
2017-09-24T20:47:56.483Z,92.00
2017-09-24T20:50:24.204Z,91.90
2017-09-24T20:52:52.434Z,92.10
2017-09-24T20:55:19.922Z,92.10
2017-09-24T20:57:47.415Z,91.80
2017-09-24T21:00:14.916Z,91.90
2017-09-24T21:02:42.464Z,91.90
2017-09-24T21:05:13.886Z,91.90
2017-09-24T21:07:41.377Z,91.90
2017-09-24T21:10:08.876Z,92.10
2017-09-24T21:12:37.340Z,92.10
2017-09-24T21:15:04.806Z,92.10
2017-09-24T21:17:33.062Z,92.30
2017-09-24T21:20:01.326Z,92.20
2017-09-24T21:22:28.819Z,92.20
2017-09-24T21:24:56.463Z,92.30
2017-09-24T21:27:24.756Z,92.30
2017-09-24T21:29:52.983Z,92.30
2017-09-24T21:32:20.462Z,92.30
2017-09-24T21:34:47.978Z,92.20
2017-09-24T21:37:15.705Z,92.30
2017-09-24T21:39:44.738Z,92.30
2017-09-24T21:42:12.198Z,92.30
2017-09-24T21:44:39.719Z,92.40
2017-09-24T21:47:07.981Z,92.30
2017-09-24T21:49:35.583Z,92.30
2017-09-24T21:52:03.088Z,92.30
2017-09-24T21:54:30.585Z,92.30
2017-09-24T21:56:58.826Z,92.30
2017-09-24T21:59:26.330Z,92.30
2017-09-24T22:01:53.807Z,92.40
2017-09-24T22:04:21.323Z,92.30
2017-09-24T22:06:49.602Z,92.50
2017-09-24T22:09:18.256Z,92.50
2017-09-24T22:11:45.756Z,92.50
2017-09-24T22:14:13.245Z,92.40
2017-09-24T22:16:40.747Z,92.50
2017-09-24T22:19:08.471Z,92.40
2017-09-24T22:21:35.976Z,92.50
2017-09-24T22:24:03.475Z,92.50
2017-09-24T22:26:30.981Z,92.50
2017-09-24T22:29:00.087Z,92.90
2017-09-24T22:31:28.384Z,92.70
2017-09-24T22:33:55.854Z,92.70
2017-09-24T22:36:23.356Z,92.60
2017-09-24T22:38:50.858Z,92.60
2017-09-24T22:41:18.945Z,92.80
2017-09-24T22:43:46.447Z,92.80
2017-09-24T22:46:13.924Z,92.80
2017-09-24T22:48:42.168Z,92.90
2017-09-24T22:51:09.645Z,92.90
2017-09-24T22:53:37.961Z,93.20
2017-09-24T22:56:05.575Z,93.20
2017-09-24T22:58:33.086Z,93.30
2017-09-24T23:01:00.578Z,93.30
2017-09-24T23:03:28.160Z,93.30
2017-09-24T23:05:55.683Z,93.10
2017-09-24T23:08:23.322Z,93.10
2017-09-24T23:10:51.306Z,93.10
2017-09-24T23:13:18.783Z,93.10
2017-09-24T23:15:46.299Z,93.20
2017-09-24T23:18:13.785Z,93.20
2017-09-24T23:20:41.478Z,93.10
2017-09-24T23:23:08.943Z,93.40
2017-09-24T23:25:36.406Z,93.40
2017-09-24T23:28:04.700Z,93.30
2017-09-24T23:30:32.176Z,93.30
2017-09-24T23:32:59.689Z,93.10
2017-09-24T23:35:27.983Z,93.30
2017-09-24T23:37:56.198Z,93.10
2017-09-24T23:40:23.666Z,93.10
2017-09-24T23:42:51.136Z,93.20
2017-09-24T23:45:18.813Z,93.30
2017-09-24T23:47:46.326Z,93.30
2017-09-24T23:50:13.916Z,93.50
2017-09-24T23:52:41.395Z,93.50
2017-09-24T23:55:09.621Z,93.70
2017-09-24T23:57:37.950Z,93.40
